createdAt,value
2022-12-18T00:01:07.093Z,19.58
2022-12-18T00:04:24.797Z,19.58
2022-12-18T00:07:28.325Z,19.55
2022-12-18T00:10:31.677Z,19.57
2022-12-18T00:13:37.290Z,19.61
2022-12-18T00:16:41.295Z,19.59
2022-12-18T00:19:44.950Z,19.58
2022-12-18T00:22:48.252Z,19.58
2022-12-18T00:25:51.729Z,19.58
2022-12-18T00:28:57.627Z,19.57
2022-12-18T00:32:01.285Z,19.55
2022-12-18T00:35:06.281Z,19.54
2022-12-18T00:38:10.015Z,19.53
2022-12-18T00:41:36.289Z,19.53
2022-12-18T00:44:42.843Z,19.50
2022-12-18T00:47:46.167Z,19.49
2022-12-18T00:50:50.389Z,19.49
2022-12-18T00:53:53.780Z,19.48
2022-12-18T00:56:57.534Z,19.46
2022-12-18T01:00:02.390Z,19.47
2022-12-18T01:03:07.598Z,19.47
2022-12-18T01:06:13.962Z,19.48
2022-12-18T01:09:17.705Z,19.48
2022-12-18T01:12:21.083Z,19.50
2022-12-18T01:15:29.223Z,19.54
2022-12-18T01:18:32.658Z,19.55
2022-12-18T01:21:36.628Z,19.57
2022-12-18T01:24:41.456Z,19.58
2022-12-18T01:27:45.516Z,19.59
2022-12-18T01:30:50.371Z,19.61
2022-12-18T01:33:55.424Z,19.61
2022-12-18T01:36:59.191Z,19.61
2022-12-18T01:40:03.273Z,19.61
2022-12-18T01:43:06.569Z,19.61
2022-12-18T01:46:11.692Z,19.64
2022-12-18T01:49:15.188Z,19.64
2022-12-18T01:52:22.654Z,19.67
2022-12-18T01:55:30.706Z,19.65
2022-12-18T01:58:43.478Z,19.64
2022-12-18T02:01:48.606Z,19.64
2022-12-18T02:04:52.990Z,19.63
2022-12-18T02:08:11.712Z,19.67
2022-12-18T02:11:27.620Z,19.64
2022-12-18T02:14:42.849Z,19.63
2022-12-18T02:17:56.418Z,19.61
2022-12-18T02:21:12.498Z,19.60
2022-12-18T02:24:30.292Z,19.58
2022-12-18T02:27:40.306Z,19.56
2022-12-18T02:30:49.843Z,19.55
2022-12-18T02:33:58.380Z,19.54
2022-12-18T02:37:10.060Z,19.55
2022-12-18T02:40:17.866Z,19.52
2022-12-18T02:43:23.848Z,19.52
2022-12-18T02:46:34.533Z,19.51
2022-12-18T02:50:03.314Z,19.51
2022-12-18T02:53:19.621Z,19.46
2022-12-18T02:56:34.592Z,19.46
2022-12-18T02:59:54.096Z,19.45
2022-12-18T03:03:06.726Z,19.45
2022-12-18T03:06:20.761Z,19.45
2022-12-18T03:09:34.021Z,19.44
2022-12-18T03:12:43.892Z,19.42
2022-12-18T03:15:55.262Z,19.41
2022-12-18T03:19:05.354Z,19.40
2022-12-18T03:22:10.163Z,19.37
2022-12-18T03:25:30.478Z,19.36
2022-12-18T03:28:42.104Z,19.37
2022-12-18T03:31:53.673Z,19.35
2022-12-18T03:35:05.705Z,19.33
2022-12-18T03:38:14.311Z,19.31
2022-12-18T03:41:34.816Z,19.33
2022-12-18T03:45:08.738Z,19.29
2022-12-18T03:48:23.120Z,19.29
2022-12-18T03:51:36.299Z,19.30
2022-12-18T03:54:44.972Z,19.29
2022-12-18T03:57:54.557Z,19.28
2022-12-18T04:01:05.150Z,19.29
2022-12-18T04:04:14.479Z,19.27
2022-12-18T04:07:20.376Z,19.26
2022-12-18T04:10:24.256Z,19.26
2022-12-18T04:13:34.003Z,19.26
2022-12-18T04:16:39.412Z,19.23
2022-12-18T04:19:48.717Z,19.25
2022-12-18T04:22:52.881Z,19.25
2022-12-18T04:25:57.517Z,19.23
2022-12-18T04:29:16.611Z,19.22
2022-12-18T04:32:20.799Z,19.23
2022-12-18T04:35:26.905Z,19.25
2022-12-18T04:38:30.690Z,19.26
2022-12-18T04:41:40.874Z,19.27
2022-12-18T04:44:46.163Z,19.29
2022-12-18T04:47:49.721Z,19.32
2022-12-18T04:50:54.907Z,19.36
2022-12-18T04:53:58.748Z,19.36
2022-12-18T04:57:02.704Z,19.35
2022-12-18T05:00:08.036Z,19.38
2022-12-18T05:03:11.746Z,19.38
2022-12-18T05:06:16.872Z,19.41
2022-12-18T05:09:20.629Z,19.42
2022-12-18T05:12:26.877Z,19.43
2022-12-18T05:15:32.570Z,19.46
2022-12-18T05:18:36.767Z,19.46
2022-12-18T05:21:41.683Z,19.48
2022-12-18T05:24:45.139Z,19.47
2022-12-18T05:27:49.428Z,19.46
2022-12-18T05:30:55.651Z,19.45
2022-12-18T05:34:00.181Z,19.47
2022-12-18T05:37:05.441Z,19.48
2022-12-18T05:40:10.805Z,19.47
2022-12-18T05:43:19.367Z,19.46
2022-12-18T05:46:25.296Z,19.44
2022-12-18T05:49:29.354Z,19.45
2022-12-18T05:52:34.290Z,19.44
2022-12-18T05:55:40.419Z,19.42
2022-12-18T05:58:45.214Z,19.39
2022-12-18T06:01:49.111Z,19.38
2022-12-18T06:04:52.663Z,19.37
2022-12-18T06:07:57.906Z,19.38
2022-12-18T06:11:01.344Z,19.36
2022-12-18T06:14:07.750Z,19.36
2022-12-18T06:17:11.366Z,19.32
2022-12-18T06:20:14.934Z,19.31
2022-12-18T06:23:20.351Z,19.31
2022-12-18T06:26:28.104Z,19.30
2022-12-18T06:29:32.141Z,19.10
2022-12-18T06:32:36.135Z,18.93
2022-12-18T06:35:39.697Z,18.83
2022-12-18T06:38:46.208Z,18.77
2022-12-18T06:41:49.803Z,18.70
2022-12-18T06:44:53.504Z,18.67
2022-12-18T06:47:56.942Z,18.64
2022-12-18T06:51:01.608Z,18.66
2022-12-18T06:54:06.768Z,18.67
2022-12-18T06:57:10.587Z,18.66
2022-12-18T07:00:15.425Z,18.67
2022-12-18T07:03:18.862Z,18.66
2022-12-18T07:06:26.637Z,18.68
2022-12-18T07:09:31.765Z,18.68
2022-12-18T07:12:35.299Z,18.67
2022-12-18T07:15:39.226Z,18.70
2022-12-18T07:18:42.906Z,18.72
2022-12-18T07:21:46.505Z,18.74
2022-12-18T07:24:54.631Z,18.80
2022-12-18T07:27:58.223Z,18.82
2022-12-18T07:31:05.565Z,18.90
2022-12-18T07:34:13.718Z,18.94
2022-12-18T07:37:17.197Z,18.96
2022-12-18T07:40:22.405Z,19.00
2022-12-18T07:43:25.786Z,19.01
2022-12-18T07:46:29.676Z,19.05
2022-12-18T07:49:33.107Z,19.09
2022-12-18T07:52:36.570Z,19.13
2022-12-18T07:56:05.532Z,19.18
2022-12-18T07:59:05.755Z,19.21
2022-12-18T08:02:09.665Z,19.27
2022-12-18T08:05:13.525Z,19.34
2022-12-18T08:08:17.874Z,19.37
2022-12-18T08:11:24.550Z,19.44
2022-12-18T08:14:28.022Z,19.44
2022-12-18T08:17:31.748Z,19.48
2022-12-18T08:20:35.208Z,19.50
2022-12-18T08:23:42.925Z,19.53
2022-12-18T08:27:06.668Z,19.55
2022-12-18T08:30:13.557Z,19.59
2022-12-18T08:33:17.100Z,19.61
2022-12-18T08:36:21.501Z,19.62
2022-12-18T08:39:24.939Z,19.62
2022-12-18T08:42:47.364Z,19.66
2022-12-18T08:45:51.848Z,19.61
2022-12-18T08:48:57.044Z,19.63
2022-12-18T08:52:00.637Z,19.60
2022-12-18T08:55:04.244Z,19.62
2022-12-18T08:58:09.299Z,19.62
2022-12-18T09:01:15.196Z,19.63
2022-12-18T09:04:19.308Z,19.63
2022-12-18T09:07:22.804Z,19.65
2022-12-18T09:10:26.424Z,19.65
2022-12-18T09:13:31.410Z,19.66
2022-12-18T09:16:35.957Z,19.62
2022-12-18T09:19:39.684Z,19.58
2022-12-18T09:22:43.171Z,19.58
2022-12-18T09:25:47.299Z,19.56
2022-12-18T09:28:53.846Z,19.56
2022-12-18T09:31:57.491Z,19.54
2022-12-18T09:35:03.591Z,19.53
2022-12-18T09:38:07.851Z,19.53
2022-12-18T09:41:37.827Z,19.56
2022-12-18T09:44:49.217Z,19.51
2022-12-18T09:47:57.482Z,19.51
2022-12-18T09:51:13.194Z,19.52
2022-12-18T09:54:24.959Z,19.53
2022-12-18T09:57:35.593Z,19.55
2022-12-18T10:00:43.352Z,19.55
2022-12-18T10:03:47.367Z,19.54
2022-12-18T10:07:08.910Z,19.57
2022-12-18T10:10:29.185Z,19.59
2022-12-18T10:13:44.257Z,19.60
2022-12-18T10:17:05.761Z,19.60
2022-12-18T10:20:22.987Z,19.62
2022-12-18T10:23:35.739Z,19.61
2022-12-18T10:26:39.528Z,19.59
2022-12-18T10:29:45.953Z,19.61
2022-12-18T10:32:51.205Z,19.61
2022-12-18T10:35:57.182Z,19.68
2022-12-18T10:39:18.488Z,19.82
2022-12-18T10:42:22.311Z,19.80
2022-12-18T10:45:25.904Z,19.88
2022-12-18T10:48:34.268Z,20.00
2022-12-18T10:51:39.778Z,19.93
2022-12-18T10:54:51.819Z,20.00
2022-12-18T10:57:57.515Z,20.02
2022-12-18T11:01:12.298Z,20.10
2022-12-18T11:04:23.199Z,20.17
2022-12-18T11:07:26.749Z,20.20
2022-12-18T11:10:34.669Z,20.20
2022-12-18T11:13:38.274Z,20.11
2022-12-18T11:17:23.906Z,20.07
2022-12-18T11:20:31.174Z,19.95
2022-12-18T11:23:36.246Z,19.88
2022-12-18T11:26:40.759Z,19.91
2022-12-18T11:29:46.733Z,19.87
2022-12-18T11:32:56.263Z,19.80
2022-12-18T11:36:07.842Z,19.75
2022-12-18T11:39:23.186Z,19.70
2022-12-18T11:42:37.949Z,19.66
2022-12-18T11:45:51.740Z,19.64
2022-12-18T11:49:05.874Z,19.62
2022-12-18T11:52:21.092Z,19.60
2022-12-18T11:55:39.023Z,19.60
2022-12-18T11:58:53.526Z,19.58
2022-12-18T12:02:16.773Z,19.61
2022-12-18T12:05:40.776Z,19.63
2022-12-18T12:09:06.037Z,19.65
2022-12-18T12:12:48.686Z,19.68
2022-12-18T12:16:12.208Z,19.68
2022-12-18T12:19:36.271Z,19.71
2022-12-18T12:22:51.880Z,19.70
2022-12-18T12:26:05.210Z,19.72
2022-12-18T12:29:33.363Z,19.73
2022-12-18T12:33:07.634Z,19.72
2022-12-18T12:36:23.110Z,19.66
2022-12-18T12:39:35.405Z,19.63
2022-12-18T12:43:03.969Z,19.62
2022-12-18T12:46:10.344Z,19.59
2022-12-18T12:49:20.032Z,19.58
2022-12-18T12:52:35.238Z,19.59
2022-12-18T12:55:40.559Z,19.54
2022-12-18T12:58:58.341Z,19.56
2022-12-18T13:02:17.214Z,19.52
2022-12-18T13:05:32.422Z,19.53
2022-12-18T13:08:57.213Z,19.55
2022-12-18T13:12:23.824Z,19.50
2022-12-18T13:15:36.606Z,19.51
2022-12-18T13:18:52.825Z,19.65
2022-12-18T13:21:58.359Z,19.74
2022-12-18T13:25:02.626Z,19.84
2022-12-18T13:28:11.135Z,19.95
2022-12-18T13:31:36.837Z,20.00
2022-12-18T13:34:40.530Z,20.02
2022-12-18T13:37:53.168Z,20.09
2022-12-18T13:41:00.549Z,20.12
2022-12-18T13:44:22.504Z,20.17
2022-12-18T13:47:35.388Z,20.09
2022-12-18T13:50:41.218Z,19.95
2022-12-18T13:53:51.681Z,19.86
2022-12-18T13:56:55.563Z,19.76
2022-12-18T14:00:00.090Z,19.69
2022-12-18T14:03:22.465Z,19.62
2022-12-18T14:06:26.530Z,19.53
2022-12-18T14:09:36.986Z,19.49
2022-12-18T14:13:03.171Z,19.42
2022-12-18T14:16:10.087Z,19.37
2022-12-18T14:19:20.334Z,19.34
2022-12-18T14:22:30.744Z,19.30
2022-12-18T14:25:34.330Z,19.25
2022-12-18T14:28:46.655Z,19.24
2022-12-18T14:32:16.887Z,19.21
2022-12-18T14:35:22.734Z,19.13
2022-12-18T14:38:30.788Z,19.11
2022-12-18T14:41:34.602Z,19.07
2022-12-18T14:44:50.710Z,19.01
2022-12-18T14:48:02.627Z,18.95
2022-12-18T14:51:21.163Z,18.94
2022-12-18T14:54:27.358Z,18.88
2022-12-18T14:57:41.263Z,18.88
2022-12-18T15:00:45.592Z,18.83
2022-12-18T15:03:49.250Z,18.89
2022-12-18T15:07:08.250Z,19.10
2022-12-18T15:10:15.527Z,19.17
2022-12-18T15:13:25.703Z,19.26
2022-12-18T15:16:29.631Z,19.27
2022-12-18T15:19:41.736Z,19.29
2022-12-18T15:22:49.810Z,19.29
2022-12-18T15:26:00.972Z,19.30
2022-12-18T15:29:04.580Z,19.29
2022-12-18T15:32:23.205Z,19.32
2022-12-18T15:35:27.247Z,19.37
2022-12-18T15:38:34.336Z,19.41
2022-12-18T15:41:38.443Z,19.45
2022-12-18T15:44:42.048Z,19.44
2022-12-18T15:47:47.444Z,19.44
2022-12-18T15:55:10.199Z,19.43
2022-12-18T15:58:14.531Z,19.40
2022-12-18T16:01:22.505Z,19.42
2022-12-18T16:04:26.660Z,19.42
2022-12-18T16:07:30.941Z,19.45
2022-12-18T16:10:37.719Z,19.48
2022-12-18T16:13:41.560Z,19.45
2022-12-18T16:16:47.077Z,19.44
2022-12-18T16:19:50.254Z,19.40
2022-12-18T16:22:54.365Z,19.36
2022-12-18T16:25:58.949Z,19.33
2022-12-18T16:29:03.125Z,19.33
2022-12-18T16:32:07.373Z,19.28
2022-12-18T16:35:13.737Z,19.28
2022-12-18T16:38:17.028Z,19.23
2022-12-18T16:41:40.755Z,19.25
2022-12-18T16:44:44.937Z,19.23
2022-12-18T16:47:48.701Z,19.25
2022-12-18T16:50:51.880Z,19.30
2022-12-18T16:53:55.902Z,19.33
2022-12-18T16:57:01.752Z,19.37
2022-12-18T17:00:07.742Z,19.39
2022-12-18T17:03:11.121Z,19.38
2022-12-18T17:06:16.242Z,19.40
2022-12-18T17:09:24.378Z,19.37
2022-12-18T17:12:29.752Z,19.33
2022-12-18T17:15:37.315Z,19.28
2022-12-18T17:18:53.160Z,19.25
2022-12-18T17:21:56.988Z,19.17
2022-12-18T17:25:00.815Z,19.12
2022-12-18T17:28:06.085Z,19.18
2022-12-18T17:31:15.251Z,19.16
2022-12-18T17:34:18.723Z,19.04
2022-12-18T17:37:22.722Z,19.00
2022-12-18T17:40:26.504Z,19.00
2022-12-18T17:43:32.092Z,18.96
2022-12-18T17:46:35.895Z,18.84
2022-12-18T17:49:39.857Z,18.79
2022-12-18T17:52:43.361Z,18.72
2022-12-18T17:55:56.628Z,18.76
2022-12-18T17:59:01.171Z,18.77
2022-12-18T18:02:05.191Z,18.88
2022-12-18T18:05:09.563Z,18.92
2022-12-18T18:08:15.214Z,18.94
2022-12-18T18:11:38.870Z,18.95
2022-12-18T18:14:44.086Z,18.91
2022-12-18T18:17:47.497Z,18.88
2022-12-18T18:20:51.715Z,18.88
2022-12-18T18:24:02.353Z,18.88
2022-12-18T18:27:06.237Z,18.83
2022-12-18T18:30:13.194Z,18.80
2022-12-18T18:33:18.329Z,18.75
2022-12-18T18:36:21.969Z,18.74
2022-12-18T18:39:27.636Z,18.70
2022-12-18T18:42:31.350Z,18.68
2022-12-18T18:45:36.883Z,18.67
2022-12-18T18:48:43.661Z,18.65
2022-12-18T18:51:47.620Z,18.64
2022-12-18T18:55:11.668Z,18.64
2022-12-18T18:58:14.824Z,18.61
2022-12-18T19:01:23.528Z,18.63
2022-12-18T19:04:27.503Z,18.62
2022-12-18T19:07:31.383Z,18.63
2022-12-18T19:10:36.065Z,18.66
2022-12-18T19:13:38.500Z,18.71
2022-12-18T19:16:45.913Z,18.75
2022-12-18T19:19:52.811Z,18.74
2022-12-18T19:22:57.482Z,18.73
2022-12-18T19:26:27.043Z,18.70
2022-12-18T19:29:27.757Z,18.68
2022-12-18T19:32:32.474Z,18.69
2022-12-18T19:35:38.560Z,18.70
2022-12-18T19:38:45.395Z,18.74
2022-12-18T19:41:50.260Z,18.68
2022-12-18T19:44:53.507Z,18.64
2022-12-18T19:48:04.146Z,18.71
2022-12-18T19:51:09.740Z,18.67
2022-12-18T19:54:17.108Z,18.65
2022-12-18T19:57:20.937Z,18.70
2022-12-18T20:00:24.933Z,18.79
2022-12-18T20:03:32.699Z,18.86
2022-12-18T20:06:48.152Z,18.85
2022-12-18T20:09:57.103Z,18.84
2022-12-18T20:13:06.540Z,18.84
2022-12-18T20:16:10.743Z,18.86
2022-12-18T20:19:16.339Z,18.95
2022-12-18T20:22:19.707Z,18.95
2022-12-18T20:25:23.794Z,19.00
2022-12-18T20:28:27.496Z,19.00
2022-12-18T20:31:31.567Z,18.98
2022-12-18T20:34:36.282Z,18.93
2022-12-18T20:37:43.819Z,18.79
2022-12-18T20:40:51.972Z,18.75
2022-12-18T20:43:55.772Z,18.81
2022-12-18T20:47:00.364Z,18.85
2022-12-18T20:50:08.802Z,18.84
2022-12-18T20:53:12.679Z,18.78
2022-12-18T20:56:21.457Z,18.76
2022-12-18T20:59:26.224Z,18.72
2022-12-18T21:02:30.249Z,18.67
2022-12-18T21:05:35.014Z,18.67
2022-12-18T21:08:40.622Z,18.67
2022-12-18T21:12:01.770Z,18.69
2022-12-18T21:15:10.365Z,18.71
2022-12-18T21:18:13.623Z,18.73
2022-12-18T21:21:21.901Z,18.76
2022-12-18T21:24:29.734Z,18.75
2022-12-18T21:27:36.896Z,18.73
2022-12-18T21:30:40.273Z,18.73
2022-12-18T21:33:43.970Z,18.73
2022-12-18T21:36:50.938Z,18.74
2022-12-18T21:39:54.894Z,18.73
2022-12-18T21:43:17.809Z,18.73
2022-12-18T21:46:21.656Z,18.71
2022-12-18T21:49:25.664Z,18.71
2022-12-18T21:52:32.259Z,18.71
2022-12-18T21:55:36.541Z,18.72
2022-12-18T21:58:40.363Z,18.75
2022-12-18T22:02:03.430Z,18.77
2022-12-18T22:05:08.275Z,18.76
2022-12-18T22:08:13.916Z,18.78
2022-12-18T22:11:18.058Z,18.77
2022-12-18T22:14:24.256Z,18.79
2022-12-18T22:17:28.157Z,18.79
2022-12-18T22:20:31.587Z,18.79
2022-12-18T22:23:36.712Z,18.79
2022-12-18T22:26:40.605Z,18.79
2022-12-18T22:30:01.788Z,18.79
2022-12-18T22:33:05.458Z,18.75
2022-12-18T22:36:09.891Z,18.79
2022-12-18T22:39:18.179Z,18.79
2022-12-18T22:42:22.740Z,18.76
2022-12-18T22:45:27.805Z,18.70
2022-12-18T22:48:31.808Z,18.60
2022-12-18T22:51:35.194Z,18.54
2022-12-18T22:54:40.436Z,18.51
2022-12-18T22:57:48.605Z,18.46
2022-12-18T23:00:53.049Z,18.44
2022-12-18T23:03:57.021Z,18.43
2022-12-18T23:07:00.796Z,18.42
2022-12-18T23:10:06.673Z,18.52
2022-12-18T23:13:10.663Z,18.59
2022-12-18T23:16:17.331Z,18.57
2022-12-18T23:19:23.598Z,18.53
2022-12-18T23:22:27.586Z,18.53
2022-12-18T23:25:33.127Z,18.53
2022-12-18T23:28:38.866Z,18.60
2022-12-18T23:31:42.750Z,18.60
2022-12-18T23:34:46.321Z,18.59
2022-12-18T23:38:05.442Z,18.53
2022-12-18T23:41:16.148Z,18.51
2022-12-18T23:44:19.931Z,18.47
2022-12-18T23:47:23.267Z,18.45
2022-12-18T23:50:29.550Z,18.41
2022-12-18T23:53:33.772Z,18.38
2022-12-18T23:56:39.012Z,18.36
2022-12-18T23:59:42.543Z,18.33
